createdAt,value
2023-04-23T00:00:14.981Z,29.43
2023-04-23T00:02:46.970Z,30.43
2023-04-23T00:05:16.542Z,29.03
2023-04-23T00:07:46.129Z,29.00
2023-04-23T00:10:15.278Z,30.07
2023-04-23T00:12:44.131Z,30.60
2023-04-23T00:15:13.936Z,30.03
2023-04-23T00:17:42.405Z,30.00
2023-04-23T00:20:12.922Z,31.07
2023-04-23T00:22:41.846Z,30.83
2023-04-23T00:25:10.985Z,31.13
2023-04-23T00:27:39.460Z,30.90
2023-04-23T00:30:09.184Z,29.97
2023-04-23T00:32:37.863Z,31.90
2023-04-23T00:35:07.264Z,30.80
2023-04-23T00:37:37.058Z,31.57
2023-04-23T00:40:06.600Z,31.30
2023-04-23T00:42:35.265Z,32.63
2023-04-23T00:45:03.761Z,31.90
2023-04-23T00:47:33.931Z,31.80
2023-04-23T00:50:04.155Z,31.03
2023-04-23T00:52:32.588Z,30.40
2023-04-23T00:55:02.274Z,29.40
2023-04-23T00:57:31.023Z,29.80
2023-04-23T00:59:59.612Z,29.17
2023-04-23T01:02:30.549Z,29.40
2023-04-23T01:05:01.219Z,29.97
2023-04-23T01:07:29.588Z,26.80
2023-04-23T01:09:58.128Z,28.27
2023-04-23T01:12:28.309Z,27.47
2023-04-23T01:14:56.947Z,27.23
2023-04-23T01:17:26.862Z,27.27
2023-04-23T01:19:55.310Z,27.80
2023-04-23T01:22:25.042Z,27.60
2023-04-23T01:24:54.079Z,27.17
2023-04-23T01:27:24.936Z,28.33
2023-04-23T01:29:54.097Z,28.50
2023-04-23T01:32:23.617Z,28.37
2023-04-23T01:34:54.359Z,29.20
2023-04-23T01:37:24.889Z,27.83
2023-04-23T01:39:53.616Z,27.80
2023-04-23T01:42:23.416Z,28.13
2023-04-23T01:44:52.322Z,28.43
2023-04-23T01:47:21.288Z,28.07
2023-04-23T01:49:49.858Z,26.90
2023-04-23T01:52:18.712Z,26.80
2023-04-23T01:54:48.862Z,26.97
2023-04-23T01:57:24.070Z,25.43
2023-04-23T01:59:52.755Z,23.63
2023-04-23T02:02:22.027Z,24.20
2023-04-23T02:04:53.034Z,25.37
2023-04-23T02:07:21.882Z,24.37
2023-04-23T02:09:51.811Z,24.63
2023-04-23T02:12:20.390Z,24.70
2023-04-23T02:14:48.852Z,24.67
2023-04-23T02:17:17.684Z,23.43
2023-04-23T02:19:46.197Z,23.70
2023-04-23T02:22:15.434Z,21.33
2023-04-23T02:24:44.569Z,21.70
2023-04-23T02:27:14.164Z,21.37
2023-04-23T02:29:42.580Z,19.70
2023-04-23T02:32:11.473Z,20.30
2023-04-23T02:34:40.145Z,17.70
2023-04-23T02:37:08.623Z,17.07
2023-04-23T02:39:38.979Z,15.43
2023-04-23T02:42:07.983Z,16.03
2023-04-23T02:44:37.579Z,14.90
2023-04-23T02:47:06.681Z,14.13
2023-04-23T02:49:35.195Z,12.83
2023-04-23T02:52:03.885Z,12.27
2023-04-23T02:54:32.801Z,12.90
2023-04-23T02:57:01.686Z,13.30
2023-04-23T02:59:30.095Z,13.63
2023-04-23T03:01:59.954Z,13.83
2023-04-23T03:04:28.866Z,14.83
2023-04-23T03:06:57.567Z,14.43
2023-04-23T03:09:25.981Z,15.40
2023-04-23T03:11:54.371Z,16.23
2023-04-23T03:14:22.849Z,17.57
2023-04-23T03:16:51.288Z,17.97
2023-04-23T03:19:21.073Z,17.77
2023-04-23T03:21:49.592Z,19.87
2023-04-23T03:24:18.368Z,20.77
2023-04-23T03:26:47.195Z,21.50
2023-04-23T03:29:15.671Z,21.77
2023-04-23T03:31:44.166Z,21.80
2023-04-23T03:34:12.590Z,22.40
2023-04-23T03:36:42.259Z,22.70
2023-04-23T03:39:10.758Z,23.17
2023-04-23T03:41:39.183Z,23.63
2023-04-23T03:44:07.733Z,22.73
2023-04-23T03:46:36.197Z,23.73
2023-04-23T03:49:04.655Z,21.87
2023-04-23T03:51:33.139Z,22.50
2023-04-23T03:54:02.949Z,21.20
2023-04-23T03:56:31.347Z,23.37
2023-04-23T03:58:59.749Z,21.13
2023-04-23T04:01:28.216Z,19.03
2023-04-23T04:03:56.728Z,20.80
2023-04-23T04:06:25.849Z,21.03
2023-04-23T04:08:54.708Z,20.10
2023-04-23T04:11:24.444Z,20.03
2023-04-23T04:13:52.891Z,20.83
2023-04-23T04:16:21.226Z,19.83
2023-04-23T04:18:49.522Z,20.53
2023-04-23T04:21:19.072Z,18.63
2023-04-23T04:23:47.684Z,19.30
2023-04-23T04:26:16.427Z,19.83
2023-04-23T04:28:46.480Z,19.23
2023-04-23T04:31:16.104Z,18.80
2023-04-23T04:33:46.365Z,19.37
2023-04-23T04:36:14.860Z,19.23
2023-04-23T04:38:44.116Z,18.77
2023-04-23T04:41:13.282Z,19.37
2023-04-23T04:43:43.735Z,18.73
2023-04-23T04:46:13.775Z,17.70
2023-04-23T04:48:42.617Z,17.20
2023-04-23T04:51:11.081Z,18.47
2023-04-23T04:53:39.502Z,16.73
2023-04-23T04:56:07.954Z,18.30
2023-04-23T04:58:36.470Z,17.40
2023-04-23T05:01:05.498Z,15.83
2023-04-23T05:03:35.815Z,16.80
2023-04-23T05:06:04.612Z,15.97
2023-04-23T05:08:33.290Z,15.83
2023-04-23T05:11:03.845Z,14.67
2023-04-23T05:13:32.839Z,12.87
2023-04-23T05:16:01.646Z,13.90
2023-04-23T05:18:30.269Z,13.07
2023-04-23T05:21:00.051Z,13.37
2023-04-23T05:23:28.314Z,13.27
2023-04-23T05:25:58.420Z,12.13
2023-04-23T05:28:27.212Z,11.83
2023-04-23T05:30:55.573Z,12.07
2023-04-23T05:33:24.024Z,11.60
2023-04-23T05:35:52.474Z,10.40
2023-04-23T05:38:22.090Z,10.50
2023-04-23T05:40:50.615Z,10.83
2023-04-23T05:43:19.007Z,9.37
2023-04-23T05:45:47.439Z,9.87
2023-04-23T05:48:15.693Z,9.33
2023-04-23T05:50:44.262Z,9.53
2023-04-23T05:53:12.737Z,8.67
2023-04-23T05:55:42.322Z,8.10
2023-04-23T05:58:10.719Z,9.77
2023-04-23T06:00:40.864Z,8.03
2023-04-23T06:03:09.537Z,7.57
2023-04-23T06:05:38.324Z,8.57
2023-04-23T06:08:07.262Z,8.50
2023-04-23T06:10:35.976Z,7.17
2023-04-23T06:13:05.943Z,6.00
2023-04-23T06:15:34.462Z,6.60
2023-04-23T06:18:02.856Z,6.43
2023-04-23T06:20:31.825Z,7.53
2023-04-23T06:23:00.230Z,6.53
2023-04-23T06:25:29.250Z,6.20
2023-04-23T06:27:59.077Z,6.20
2023-04-23T06:30:28.755Z,6.13
2023-04-23T06:32:57.203Z,6.00
2023-04-23T06:35:25.696Z,6.80
2023-04-23T06:37:54.144Z,5.93
2023-04-23T06:40:22.561Z,5.47
2023-04-23T06:42:50.978Z,5.97
2023-04-23T06:45:19.363Z,6.43
2023-04-23T06:47:49.899Z,5.50
2023-04-23T06:50:18.371Z,5.53
2023-04-23T06:52:46.840Z,5.13
2023-04-23T06:55:15.073Z,5.37
2023-04-23T06:57:43.515Z,5.17
2023-04-23T07:00:13.059Z,5.47
2023-04-23T07:02:41.648Z,4.83
2023-04-23T07:05:11.779Z,4.20
2023-04-23T07:07:40.768Z,4.77
2023-04-23T07:10:10.203Z,4.67
2023-04-23T07:12:39.240Z,5.27
2023-04-23T07:15:09.151Z,4.00
2023-04-23T07:17:37.579Z,4.33
2023-04-23T07:20:06.681Z,4.87
2023-04-23T07:22:36.521Z,4.77
2023-04-23T07:25:06.162Z,4.23
2023-04-23T07:27:35.170Z,4.27
2023-04-23T07:30:03.586Z,5.27
2023-04-23T07:32:32.011Z,4.03
2023-04-23T07:35:00.447Z,3.90
2023-04-23T07:37:28.820Z,3.93
2023-04-23T07:39:58.503Z,4.63
2023-04-23T07:42:26.875Z,4.23
2023-04-23T07:44:55.354Z,3.03
2023-04-23T07:47:23.806Z,3.60
2023-04-23T07:49:52.283Z,3.93
2023-04-23T07:52:20.823Z,3.87
2023-04-23T07:54:49.123Z,3.60
2023-04-23T07:57:18.820Z,4.27
2023-04-23T07:59:47.171Z,3.90
2023-04-23T08:02:15.732Z,3.97
2023-04-23T08:04:44.282Z,3.73
2023-04-23T08:07:13.174Z,4.30
2023-04-23T08:09:42.425Z,3.53
2023-04-23T08:12:11.165Z,3.43
2023-04-23T08:14:40.870Z,3.47
2023-04-23T08:17:09.400Z,4.17
2023-04-23T08:19:37.882Z,3.60
2023-04-23T08:22:06.963Z,4.17
2023-04-23T08:24:35.539Z,3.60
2023-04-23T08:27:03.939Z,3.77
2023-04-23T08:29:32.397Z,3.97
2023-04-23T08:32:02.158Z,3.40
2023-04-23T08:34:30.605Z,3.40
2023-04-23T08:36:58.967Z,3.00
2023-04-23T08:39:28.040Z,2.88
2023-04-23T08:41:57.373Z,3.22
2023-04-23T08:44:27.439Z,2.72
2023-04-23T08:46:56.860Z,2.80
2023-04-23T08:49:32.414Z,3.17
2023-04-23T08:52:09.357Z,3.38
2023-04-23T08:54:42.945Z,4.20
2023-04-23T08:57:11.748Z,3.22
2023-04-23T08:59:42.139Z,4.13
2023-04-23T09:02:11.070Z,3.72
2023-04-23T09:04:40.913Z,3.70
2023-04-23T09:07:11.602Z,4.10
2023-04-23T09:09:41.340Z,3.90
2023-04-23T09:12:11.091Z,3.38
2023-04-23T09:14:40.972Z,3.47
2023-04-23T09:17:09.693Z,3.80
2023-04-23T09:19:41.261Z,3.90
2023-04-23T09:22:10.141Z,3.70
2023-04-23T09:24:38.903Z,3.33
2023-04-23T09:27:07.496Z,3.72
2023-04-23T09:29:36.020Z,4.05
2023-04-23T09:32:09.858Z,3.45
2023-04-23T09:34:41.334Z,3.45
2023-04-23T09:37:11.102Z,3.58
2023-04-23T09:39:41.215Z,4.07
2023-04-23T09:42:12.234Z,3.55
2023-04-23T09:44:40.684Z,3.03
2023-04-23T09:47:12.215Z,3.40
2023-04-23T09:49:49.101Z,2.42
2023-04-23T09:52:18.165Z,3.40
2023-04-23T09:54:47.878Z,2.80
2023-04-23T09:57:16.990Z,3.20
2023-04-23T09:59:47.873Z,3.30
2023-04-23T10:02:18.967Z,3.60
2023-04-23T10:05:00.557Z,3.50
2023-04-23T10:07:35.931Z,3.35
2023-04-23T10:10:04.435Z,5.03
2023-04-23T10:12:52.994Z,3.95
2023-04-23T10:15:21.535Z,3.50
2023-04-23T10:17:51.317Z,3.35
2023-04-23T10:20:23.650Z,3.40
2023-04-23T10:22:54.671Z,4.45
2023-04-23T10:25:25.665Z,4.15
2023-04-23T10:27:56.376Z,3.92
2023-04-23T10:30:24.990Z,4.60
2023-04-23T10:32:54.318Z,4.72
2023-04-23T10:35:24.274Z,4.70
2023-04-23T10:37:52.945Z,4.63
2023-04-23T10:40:25.704Z,3.97
2023-04-23T10:42:55.643Z,4.03
2023-04-23T10:45:25.649Z,4.40
2023-04-23T10:47:56.382Z,2.60
2023-04-23T10:50:28.376Z,2.30
2023-04-23T10:52:58.364Z,3.00
2023-04-23T10:55:29.628Z,2.25
2023-04-23T10:58:03.082Z,2.17
2023-04-23T11:00:45.987Z,2.00
2023-04-23T11:03:33.774Z,2.22
2023-04-23T11:06:07.599Z,2.63
2023-04-23T11:08:36.707Z,2.40
2023-04-23T11:11:09.239Z,2.38
2023-04-23T11:13:37.715Z,2.28
2023-04-23T11:16:16.478Z,2.50
2023-04-23T11:19:03.646Z,2.63
2023-04-23T11:22:06.294Z,1.98
2023-04-23T11:24:39.040Z,1.58
2023-04-23T11:27:09.007Z,1.58
2023-04-23T11:29:39.237Z,1.55
2023-04-23T11:32:10.786Z,1.45
2023-04-23T11:34:41.226Z,1.13
2023-04-23T11:37:13.179Z,1.30
2023-04-23T11:39:43.107Z,1.00
2023-04-23T11:42:13.204Z,0.77
2023-04-23T11:44:42.622Z,1.05
2023-04-23T11:47:12.538Z,1.02
2023-04-23T11:49:42.677Z,1.38
2023-04-23T11:52:13.114Z,1.20
2023-04-23T11:54:42.726Z,1.30
2023-04-23T11:57:11.900Z,1.40
2023-04-23T11:59:40.569Z,1.25
2023-04-23T12:02:09.236Z,1.20
2023-04-23T12:04:40.951Z,1.33
2023-04-23T12:07:19.695Z,1.10
2023-04-23T12:10:01.081Z,1.20
2023-04-23T12:12:35.434Z,1.23
2023-04-23T12:15:08.539Z,1.13
2023-04-23T12:17:37.508Z,1.30
2023-04-23T12:20:07.388Z,1.77
2023-04-23T12:22:35.851Z,1.30
2023-04-23T12:25:09.785Z,1.40
2023-04-23T12:27:42.432Z,1.63
2023-04-23T12:30:12.666Z,1.30
2023-04-23T12:32:41.147Z,1.83
2023-04-23T12:35:11.368Z,1.85
2023-04-23T12:37:39.893Z,1.80
2023-04-23T12:40:10.808Z,1.40
2023-04-23T12:42:39.235Z,0.90
2023-04-23T12:45:10.259Z,1.70
2023-04-23T12:47:38.923Z,1.30
2023-04-23T12:50:08.496Z,1.75
2023-04-23T12:52:38.252Z,1.60
2023-04-23T12:55:07.661Z,1.70
2023-04-23T12:57:37.789Z,1.60
2023-04-23T13:00:08.957Z,1.60
2023-04-23T13:02:37.631Z,1.92
2023-04-23T13:05:06.736Z,1.40
2023-04-23T13:07:35.162Z,1.20
2023-04-23T13:10:03.572Z,2.08
2023-04-23T13:12:31.860Z,1.60
2023-04-23T13:15:01.763Z,1.67
2023-04-23T13:17:30.734Z,1.50
2023-04-23T13:19:59.181Z,1.40
2023-04-23T13:22:30.034Z,1.92
2023-04-23T13:24:58.527Z,1.83
2023-04-23T13:27:28.380Z,1.45
2023-04-23T13:29:57.016Z,1.50
2023-04-23T13:32:27.347Z,1.50
2023-04-23T13:34:56.611Z,1.77
2023-04-23T13:37:26.502Z,1.85
2023-04-23T13:39:55.071Z,1.67
2023-04-23T13:42:23.687Z,1.90
2023-04-23T13:44:52.540Z,1.90
2023-04-23T13:47:21.056Z,1.77
2023-04-23T13:49:51.368Z,2.03
2023-04-23T13:52:20.024Z,1.20
2023-04-23T13:54:50.500Z,1.42
2023-04-23T13:57:18.854Z,1.20
2023-04-23T13:59:47.324Z,1.40
2023-04-23T14:02:15.804Z,1.25
2023-04-23T14:04:44.293Z,1.40
2023-04-23T14:07:14.427Z,1.27
2023-04-23T14:09:43.525Z,1.40
2023-04-23T14:12:12.410Z,1.27
2023-04-23T14:14:40.966Z,1.45
2023-04-23T14:17:09.647Z,1.42
2023-04-23T14:19:38.176Z,1.30
2023-04-23T14:22:06.687Z,1.60
2023-04-23T14:24:45.554Z,1.60
2023-04-23T14:27:13.938Z,1.60
2023-04-23T14:29:46.557Z,1.65
2023-04-23T14:32:15.286Z,2.00
2023-04-23T14:34:43.694Z,1.65
2023-04-23T14:37:12.396Z,1.60
2023-04-23T14:39:42.437Z,1.40
2023-04-23T14:42:10.997Z,1.70
2023-04-23T14:44:39.429Z,1.40
2023-04-23T14:47:10.290Z,1.92
2023-04-23T14:49:40.768Z,2.45
2023-04-23T14:52:09.381Z,2.30
2023-04-23T14:54:37.851Z,2.17
2023-04-23T14:57:07.688Z,2.00
2023-04-23T14:59:36.068Z,1.77
2023-04-23T15:02:04.723Z,2.20
2023-04-23T15:04:33.614Z,2.38
2023-04-23T15:07:02.167Z,2.33
2023-04-23T15:09:30.537Z,2.30
2023-04-23T15:11:59.088Z,2.45
2023-04-23T15:14:37.556Z,2.92
2023-04-23T15:17:06.144Z,2.50
2023-04-23T15:19:34.604Z,2.50
2023-04-23T15:22:03.087Z,2.83
2023-04-23T15:24:31.592Z,2.97
2023-04-23T15:27:01.214Z,3.10
2023-04-23T15:29:31.139Z,3.08
2023-04-23T15:31:59.681Z,3.23
2023-04-23T15:34:28.267Z,3.27
2023-04-23T15:36:56.672Z,3.33
2023-04-23T15:39:26.299Z,3.87
2023-04-23T15:41:54.722Z,3.80
2023-04-23T15:44:23.784Z,3.70
2023-04-23T15:46:53.725Z,3.20
2023-04-23T15:49:22.148Z,3.15
2023-04-23T15:51:50.510Z,3.75
2023-04-23T15:54:19.098Z,3.50
2023-04-23T15:56:47.619Z,3.40
2023-04-23T15:59:16.173Z,3.77
2023-04-23T16:01:44.528Z,4.03
2023-04-23T16:04:14.238Z,4.22
2023-04-23T16:06:43.217Z,4.47
2023-04-23T16:09:11.485Z,4.63
2023-04-23T16:11:40.042Z,4.30
2023-04-23T16:14:09.316Z,4.83
2023-04-23T16:16:39.050Z,4.63
2023-04-23T16:19:07.898Z,4.87
2023-04-23T16:21:37.703Z,4.63
2023-04-23T16:24:07.663Z,5.00
2023-04-23T16:26:37.384Z,4.63
2023-04-23T16:31:40.640Z,5.37
2023-04-23T16:34:09.042Z,5.97
2023-04-23T16:36:38.886Z,6.07
2023-04-23T16:39:07.482Z,6.60
2023-04-23T16:41:35.968Z,6.90
2023-04-23T16:44:04.370Z,7.30
2023-04-23T16:46:33.126Z,2.70
2023-04-23T16:49:01.785Z,3.40
2023-04-23T16:51:30.614Z,2.37
2023-04-23T16:54:02.777Z,0.00
2023-04-23T16:56:31.231Z,0.00
2023-04-23T16:59:00.184Z,0.40
2023-04-23T17:01:28.676Z,0.00
2023-04-23T17:03:57.235Z,0.03
2023-04-23T17:06:28.584Z,0.00
2023-04-23T17:08:58.329Z,0.00
2023-04-23T17:11:29.067Z,0.07
2023-04-23T17:13:58.447Z,0.03
2023-04-23T17:16:27.654Z,0.00
2023-04-23T17:18:56.514Z,0.57
2023-04-23T17:21:26.036Z,0.00
2023-04-23T17:23:56.338Z,0.00
2023-04-23T17:26:25.163Z,0.00
2023-04-23T17:28:55.158Z,0.00
2023-04-23T17:31:23.750Z,0.10
2023-04-23T17:33:53.647Z,0.20
2023-04-23T17:36:21.989Z,0.67
2023-04-23T17:38:50.381Z,0.00
2023-04-23T17:41:19.238Z,0.10
2023-04-23T17:43:49.338Z,0.10
2023-04-23T17:46:19.150Z,0.33
2023-04-23T17:48:48.284Z,0.00
2023-04-23T17:51:16.794Z,0.00
2023-04-23T17:53:48.356Z,0.20
2023-04-23T17:56:16.945Z,0.10
2023-04-23T17:58:45.804Z,0.00
2023-04-23T18:01:15.481Z,0.07
2023-04-23T18:03:45.429Z,0.00
2023-04-23T18:06:14.032Z,0.00
2023-04-23T18:08:43.029Z,0.17
2023-04-23T18:11:11.569Z,0.00
2023-04-23T18:13:40.009Z,0.27
2023-04-23T18:16:08.480Z,0.07
2023-04-23T18:18:37.220Z,0.00
2023-04-23T18:21:07.240Z,0.20
2023-04-23T18:23:36.106Z,0.20
2023-04-23T18:26:04.627Z,0.00
2023-04-23T18:28:34.904Z,0.20
2023-04-23T18:31:03.870Z,0.20
2023-04-23T18:33:37.177Z,0.00
2023-04-23T18:36:22.245Z,0.00
2023-04-23T18:38:51.608Z,0.10
2023-04-23T18:41:20.099Z,0.03
2023-04-23T18:43:48.646Z,0.20
2023-04-23T18:46:17.252Z,0.10
2023-04-23T18:48:53.807Z,0.20
2023-04-23T18:51:31.193Z,0.10
2023-04-23T18:54:01.512Z,0.10
2023-04-23T18:56:30.088Z,0.43
2023-04-23T18:58:58.560Z,0.10
2023-04-23T19:01:27.909Z,0.20
2023-04-23T19:03:57.266Z,0.00
2023-04-23T19:06:28.273Z,0.00
2023-04-23T19:08:57.106Z,0.03
2023-04-23T19:11:26.995Z,0.10
2023-04-23T19:13:55.463Z,0.30
2023-04-23T19:16:24.133Z,0.17
2023-04-23T19:18:52.992Z,0.03
2023-04-23T19:21:21.390Z,0.10
2023-04-23T19:23:51.827Z,0.20
2023-04-23T19:26:20.378Z,0.30
2023-04-23T19:28:49.074Z,0.30
2023-04-23T19:31:17.668Z,0.10
2023-04-23T19:33:47.621Z,0.20
2023-04-23T19:36:16.234Z,0.13
2023-04-23T19:38:44.667Z,0.20
2023-04-23T19:41:14.639Z,0.30
2023-04-23T19:43:43.029Z,0.90
2023-04-23T19:46:11.591Z,0.60
2023-04-23T19:48:40.094Z,0.63
2023-04-23T19:51:08.749Z,0.50
2023-04-23T19:53:37.245Z,0.10
2023-04-23T19:56:08.496Z,0.10
2023-04-23T19:58:39.510Z,0.20
2023-04-23T20:01:08.890Z,0.20
2023-04-23T20:03:39.413Z,0.57
2023-04-23T20:06:08.138Z,0.40
2023-04-23T20:08:42.457Z,0.70
2023-04-23T20:11:11.542Z,0.20
2023-04-23T20:13:43.084Z,0.20
2023-04-23T20:16:12.207Z,0.30
2023-04-23T20:18:40.808Z,0.10
2023-04-23T20:21:09.567Z,0.07
2023-04-23T20:23:37.993Z,0.20
2023-04-23T20:26:07.584Z,0.10
2023-04-23T20:28:36.081Z,0.33
2023-04-23T20:31:05.686Z,0.20
2023-04-23T20:33:34.135Z,0.27
2023-04-23T20:36:02.469Z,0.20
2023-04-23T20:38:33.313Z,0.37
2023-04-23T20:41:02.919Z,0.20
2023-04-23T20:43:33.102Z,0.10
2023-04-23T20:46:01.820Z,0.00
2023-04-23T20:48:32.237Z,0.10
2023-04-23T20:51:00.766Z,0.30
2023-04-23T20:53:29.761Z,0.43
2023-04-23T20:55:58.581Z,0.33
2023-04-23T20:58:27.146Z,0.20
2023-04-23T21:00:55.574Z,0.40
2023-04-23T21:03:24.110Z,0.13
2023-04-23T21:05:54.021Z,0.20
2023-04-23T21:08:22.450Z,0.10
2023-04-23T21:10:51.368Z,0.13
2023-04-23T21:13:19.807Z,0.43
2023-04-23T21:15:48.870Z,0.33
2023-04-23T21:18:17.776Z,0.10
2023-04-23T21:20:46.987Z,0.20
2023-04-23T21:23:16.658Z,0.50
2023-04-23T21:25:45.089Z,0.30
2023-04-23T21:28:15.700Z,0.10
2023-04-23T21:30:49.381Z,0.40
2023-04-23T21:33:18.223Z,0.30
2023-04-23T21:35:47.236Z,0.20
2023-04-23T21:38:16.971Z,0.50
2023-04-23T21:40:45.832Z,0.50
2023-04-23T21:43:14.341Z,0.23
2023-04-23T21:45:42.876Z,0.20
2023-04-23T21:48:11.482Z,0.60
2023-04-23T21:50:39.967Z,0.13
2023-04-23T21:53:08.777Z,0.00
2023-04-23T21:55:38.441Z,0.20
2023-04-23T21:58:17.081Z,0.50
2023-04-23T22:00:47.910Z,0.33
2023-04-23T22:03:25.577Z,0.70
2023-04-23T22:06:05.310Z,0.50
2023-04-23T22:08:34.805Z,1.33
2023-04-23T22:11:04.578Z,0.20
2023-04-23T22:13:33.156Z,0.50
2023-04-23T22:16:01.820Z,0.23
2023-04-23T22:18:30.121Z,0.20
2023-04-23T22:20:58.511Z,0.10
2023-04-23T22:23:26.978Z,0.20
2023-04-23T22:25:55.362Z,0.10
2023-04-23T22:28:25.046Z,0.33
2023-04-23T22:30:53.630Z,0.00
2023-04-23T22:33:22.102Z,0.30
2023-04-23T22:35:50.551Z,0.20
2023-04-23T22:38:19.247Z,0.40
2023-04-23T22:40:47.665Z,0.00
2023-04-23T22:43:16.032Z,0.00
2023-04-23T22:45:45.733Z,0.20
2023-04-23T22:48:14.545Z,0.00
2023-04-23T22:50:43.194Z,0.00
2023-04-23T22:53:11.482Z,0.10
2023-04-23T22:55:40.572Z,0.00
2023-04-23T22:58:09.320Z,0.10
2023-04-23T23:00:37.684Z,0.10
2023-04-23T23:03:08.315Z,0.00
2023-04-23T23:05:36.874Z,0.10
2023-04-23T23:08:06.826Z,0.17
2023-04-23T23:10:35.392Z,0.00
2023-04-23T23:13:03.891Z,0.00
2023-04-23T23:15:32.335Z,0.33
2023-04-23T23:18:01.265Z,0.20
2023-04-23T23:20:31.145Z,0.20
2023-04-23T23:22:59.571Z,0.20
2023-04-23T23:25:28.014Z,0.47
2023-04-23T23:27:56.609Z,0.40
2023-04-23T23:30:25.688Z,0.53
2023-04-23T23:32:54.432Z,0.73
2023-04-23T23:35:22.874Z,0.20
2023-04-23T23:37:52.709Z,16.67
2023-04-23T23:40:21.598Z,18.97
2023-04-23T23:42:50.048Z,19.33
2023-04-23T23:45:18.627Z,17.83
2023-04-23T23:47:47.554Z,20.87
2023-04-23T23:50:16.120Z,20.10
2023-04-23T23:52:44.562Z,20.43
2023-04-23T23:55:14.576Z,20.77
2023-04-23T23:57:43.311Z,17.40
